sensor_id;sensor_type;location;lat;lon;timestamp;pressure;altitude;pressure_sealevel;temperature
27826;BMP280;15077;49.704;9.908;2023-10-13T00:02:03;98174.84;;;21.23
27826;BMP280;15077;49.704;9.908;2023-10-13T00:04:34;98167.13;;;21.23
27826;BMP280;15077;49.704;9.908;2023-10-13T00:07:04;98171.31;;;21.24
27826;BMP280;15077;49.704;9.908;2023-10-13T00:09:35;98166.03;;;21.25
27826;BMP280;15077;49.704;9.908;2023-10-13T00:12:09;98175.53;;;21.25
27826;BMP280;15077;49.704;9.908;2023-10-13T00:14:39;98174.59;;;21.26
27826;BMP280;15077;49.704;9.908;2023-10-13T00:17:07;98164.97;;;21.28
27826;BMP280;15077;49.704;9.908;2023-10-13T00:19:38;98167.41;;;21.29
27826;BMP280;15077;49.704;9.908;2023-10-13T00:22:10;98160.50;;;21.30
27826;BMP280;15077;49.704;9.908;2023-10-13T00:24:39;98162.13;;;21.31
27826;BMP280;15077;49.704;9.908;2023-10-13T00:27:13;98157.66;;;21.33
27826;BMP280;15077;49.704;9.908;2023-10-13T00:30:00;98159.31;;;21.34
27826;BMP280;15077;49.704;9.908;2023-10-13T00:32:47;98162.00;;;21.32
27826;BMP280;15077;49.704;9.908;2023-10-13T00:35:19;98171.25;;;21.35
27826;BMP280;15077;49.704;9.908;2023-10-13T00:38:06;98154.16;;;21.34
27826;BMP280;15077;49.704;9.908;2023-10-13T00:40:52;98144.66;;;21.34
27826;BMP280;15077;49.704;9.908;2023-10-13T00:43:22;98146.16;;;21.37
27826;BMP280;15077;49.704;9.908;2023-10-13T00:45:54;98146.84;;;21.39
27826;BMP280;15077;49.704;9.908;2023-10-13T00:48:26;98147.69;;;21.39
27826;BMP280;15077;49.704;9.908;2023-10-13T00:51:05;98161.25;;;21.41
27826;BMP280;15077;49.704;9.908;2023-10-13T00:53:45;98154.31;;;21.42
27826;BMP280;15077;49.704;9.908;2023-10-13T00:56:14;98160.19;;;21.43
27826;BMP280;15077;49.704;9.908;2023-10-13T00:58:48;98156.66;;;21.44
27826;BMP280;15077;49.704;9.908;2023-10-13T01:01:19;98168.59;;;21.45
27826;BMP280;15077;49.704;9.908;2023-10-13T01:03:50;98163.44;;;21.45
27826;BMP280;15077;49.704;9.908;2023-10-13T01:06:28;98153.97;;;21.46
27826;BMP280;15077;49.704;9.908;2023-10-13T01:09:02;98144.25;;;21.49
27826;BMP280;15077;49.704;9.908;2023-10-13T01:11:46;98136.38;;;21.51
27826;BMP280;15077;49.704;9.908;2023-10-13T01:14:20;98132.03;;;21.51
27826;BMP280;15077;49.704;9.908;2023-10-13T01:16:48;98126.59;;;21.54
27826;BMP280;15077;49.704;9.908;2023-10-13T01:19:19;98123.78;;;21.57
27826;BMP280;15077;49.704;9.908;2023-10-13T01:21:52;98128.81;;;21.59
27826;BMP280;15077;49.704;9.908;2023-10-13T01:24:32;98120.13;;;21.60
27826;BMP280;15077;49.704;9.908;2023-10-13T01:27:02;98120.13;;;21.60
27826;BMP280;15077;49.704;9.908;2023-10-13T01:29:56;98121.75;;;21.61
27826;BMP280;15077;49.704;9.908;2023-10-13T01:32:32;98125.16;;;21.61
27826;BMP280;15077;49.704;9.908;2023-10-13T01:34:59;98114.13;;;21.59
27826;BMP280;15077;49.704;9.908;2023-10-13T01:37:32;98125.16;;;21.61
27826;BMP280;15077;49.704;9.908;2023-10-13T01:40:00;98119.88;;;21.63
27826;BMP280;15077;49.704;9.908;2023-10-13T01:42:26;98121.63;;;21.62
27826;BMP280;15077;49.704;9.908;2023-10-13T01:44:53;98124.19;;;21.62
27826;BMP280;15077;49.704;9.908;2023-10-13T01:47:35;98127.75;;;21.61
27826;BMP280;15077;49.704;9.908;2023-10-13T01:50:01;98122.59;;;21.61
27826;BMP280;15077;49.704;9.908;2023-10-13T01:52:38;98126.91;;;21.61
27826;BMP280;15077;49.704;9.908;2023-10-13T01:55:05;98114.13;;;21.59
27826;BMP280;15077;49.704;9.908;2023-10-13T01:57:33;98124.44;;;21.59
27826;BMP280;15077;49.704;9.908;2023-10-13T01:59:59;98122.00;;;21.58
27826;BMP280;15077;49.704;9.908;2023-10-13T02:02:34;98119.56;;;21.56
27826;BMP280;15077;49.704;9.908;2023-10-13T02:05:03;98124.97;;;21.53
27826;BMP280;15077;49.704;9.908;2023-10-13T02:07:29;98119.94;;;21.52
27826;BMP280;15077;49.704;9.908;2023-10-13T02:09:57;98115.88;;;21.49
27826;BMP280;15077;49.704;9.908;2023-10-13T02:12:23;98113.28;;;21.49
27826;BMP280;15077;49.704;9.908;2023-10-13T02:15:02;98108.13;;;21.49
27826;BMP280;15077;49.704;9.908;2023-10-13T02:17:31;98108.13;;;21.49
27826;BMP280;15077;49.704;9.908;2023-10-13T02:20:07;98106.25;;;21.51
27826;BMP280;15077;49.704;9.908;2023-10-13T02:22:41;98101.09;;;21.51
27826;BMP280;15077;49.704;9.908;2023-10-13T02:25:18;98101.75;;;21.53
27826;BMP280;15077;49.704;9.908;2023-10-13T02:28:02;98103.28;;;21.56
27826;BMP280;15077;49.704;9.908;2023-10-13T02:30:38;98098.91;;;21.56
27826;BMP280;15077;49.704;9.908;2023-10-13T02:33:06;98103.16;;;21.57
27826;BMP280;15077;49.704;9.908;2023-10-13T02:35:33;98102.22;;;21.58
27826;BMP280;15077;49.704;9.908;2023-10-13T02:38:01;98105.47;;;21.60
27826;BMP280;15077;49.704;9.908;2023-10-13T02:40:37;98093.25;;;21.62
27826;BMP280;15077;49.704;9.908;2023-10-13T02:43:04;98089.59;;;21.65
27826;BMP280;15077;49.704;9.908;2023-10-13T02:45:33;98077.50;;;21.65
27826;BMP280;15077;49.704;9.908;2023-10-13T02:48:03;98077.50;;;21.65
27826;BMP280;15077;49.704;9.908;2023-10-13T02:50:40;98068.69;;;21.68
27826;BMP280;15077;49.704;9.908;2023-10-13T02:53:11;98067.75;;;21.69
27826;BMP280;15077;49.704;9.908;2023-10-13T02:55:51;98062.59;;;21.69
27826;BMP280;15077;49.704;9.908;2023-10-13T02:58:18;98066.97;;;21.68
27826;BMP280;15077;49.704;9.908;2023-10-13T03:00:44;98060.16;;;21.67
27826;BMP280;15077;49.704;9.908;2023-10-13T03:03:15;98061.09;;;21.66
27826;BMP280;15077;49.704;9.908;2023-10-13T03:05:44;98064.63;;;21.65
27826;BMP280;15077;49.704;9.908;2023-10-13T03:08:11;98062.03;;;21.65
27826;BMP280;15077;49.704;9.908;2023-10-13T03:10:43;98072.34;;;21.65
27826;BMP280;15077;49.704;9.908;2023-10-13T03:13:13;98063.00;;;21.64
27826;BMP280;15077;49.704;9.908;2023-10-13T03:15:39;98069.09;;;21.63
27826;BMP280;15077;49.704;9.908;2023-10-13T03:18:04;98065.72;;;21.63
27826;BMP280;15077;49.704;9.908;2023-10-13T03:20:30;98069.22;;;21.62
27826;BMP280;15077;49.704;9.908;2023-10-13T03:22:59;98063.38;;;21.60
27826;BMP280;15077;49.704;9.908;2023-10-13T03:25:25;98064.44;;;21.57
27826;BMP280;15077;49.704;9.908;2023-10-13T03:27:58;98051.41;;;21.49
27826;BMP280;15077;49.704;9.908;2023-10-13T03:30:23;98057.06;;;21.43
27826;BMP280;15077;49.704;9.908;2023-10-13T03:33:00;98051.44;;;21.39
27826;BMP280;15077;49.704;9.908;2023-10-13T03:35:26;98041.50;;;21.34
27826;BMP280;15077;49.704;9.908;2023-10-13T03:38:03;98040.16;;;21.30
27826;BMP280;15077;49.704;9.908;2023-10-13T03:40:29;98039.59;;;21.27
27826;BMP280;15077;49.704;9.908;2023-10-13T03:42:56;98041.47;;;21.25
27826;BMP280;15077;49.704;9.908;2023-10-13T03:45:45;98028.03;;;21.21
27826;BMP280;15077;49.704;9.908;2023-10-13T03:48:17;98035.19;;;21.18
27826;BMP280;15077;49.704;9.908;2023-10-13T03:51:01;98044.25;;;21.12
27826;BMP280;15077;49.704;9.908;2023-10-13T03:53:39;98040.19;;;21.10
27826;BMP280;15077;49.704;9.908;2023-10-13T03:56:28;98039.47;;;21.08
27826;BMP280;15077;49.704;9.908;2023-10-13T03:58:56;98045.34;;;21.10
27826;BMP280;15077;49.704;9.908;2023-10-13T04:01:32;98037.09;;;21.16
27826;BMP280;15077;49.704;9.908;2023-10-13T04:04:12;98038.47;;;21.20
27826;BMP280;15077;49.704;9.908;2023-10-13T04:06:39;98033.06;;;21.23
27826;BMP280;15077;49.704;9.908;2023-10-13T04:09:21;98029.53;;;21.24
27826;BMP280;15077;49.704;9.908;2023-10-13T04:12:00;98033.88;;;21.23
27826;BMP280;15077;49.704;9.908;2023-10-13T04:14:30;98024.38;;;21.24
27826;BMP280;15077;49.704;9.908;2023-10-13T04:17:14;98025.22;;;21.24
27826;BMP280;15077;49.704;9.908;2023-10-13T04:19:43;98025.22;;;21.24
27826;BMP280;15077;49.704;9.908;2023-10-13T04:22:27;98027.06;;;21.22
27826;BMP280;15077;49.704;9.908;2023-10-13T04:25:15;98022.06;;;21.21
27826;BMP280;15077;49.704;9.908;2023-10-13T04:28:03;98017.88;;;21.20
27826;BMP280;15077;49.704;9.908;2023-10-13T04:30:42;98022.31;;;21.18
27826;BMP280;15077;49.704;9.908;2023-10-13T04:33:32;98014.84;;;21.15
27826;BMP280;15077;49.704;9.908;2023-10-13T04:36:18;98022.69;;;21.13
27826;BMP280;15077;49.704;9.908;2023-10-13T04:38:54;98011.84;;;21.10
27826;BMP280;15077;49.704;9.908;2023-10-13T04:41:39;98011.84;;;21.10
27826;BMP280;15077;49.704;9.908;2023-10-13T04:44:15;98003.53;;;21.06
27826;BMP280;15077;49.704;9.908;2023-10-13T04:46:58;98002.97;;;21.03
27826;BMP280;15077;49.704;9.908;2023-10-13T04:49:24;98002.28;;;21.01
27826;BMP280;15077;49.704;9.908;2023-10-13T04:51:58;97999.00;;;20.99
27826;BMP280;15077;49.704;9.908;2023-10-13T04:54:42;98004.88;;;21.01
27826;BMP280;15077;49.704;9.908;2023-10-13T04:57:11;97995.50;;;21.00
27826;BMP280;15077;49.704;9.908;2023-10-13T04:59:50;97997.16;;;21.01
27826;BMP280;15077;49.704;9.908;2023-10-13T05:02:35;97997.16;;;21.01
27826;BMP280;15077;49.704;9.908;2023-10-13T05:05:21;97990.34;;;21.00
27826;BMP280;15077;49.704;9.908;2023-10-13T05:08:05;97984.53;;;20.98
27826;BMP280;15077;49.704;9.908;2023-10-13T05:10:49;97991.53;;;20.96
27826;BMP280;15077;49.704;9.908;2023-10-13T05:13:34;98000.91;;;20.97
27826;BMP280;15077;49.704;9.908;2023-10-13T05:16:18;97992.50;;;20.95
27826;BMP280;15077;49.704;9.908;2023-10-13T05:19:02;97991.66;;;20.94
27826;BMP280;15077;49.704;9.908;2023-10-13T05:21:46;97988.28;;;20.94
27826;BMP280;15077;49.704;9.908;2023-10-13T05:24:31;97985.72;;;20.94
27826;BMP280;15077;49.704;9.908;2023-10-13T05:27:15;97986.50;;;20.94
27826;BMP280;15077;49.704;9.908;2023-10-13T05:29:59;97988.97;;;20.96
27826;BMP280;15077;49.704;9.908;2023-10-13T05:32:43;97988.84;;;20.97
27826;BMP280;15077;49.704;9.908;2023-10-13T05:35:30;97993.84;;;20.99
27826;BMP280;15077;49.704;9.908;2023-10-13T05:38:15;97987.91;;;20.98
27826;BMP280;15077;49.704;9.908;2023-10-13T05:41:04;97983.25;;;20.93
27826;BMP280;15077;49.704;9.908;2023-10-13T05:43:48;97990.81;;;20.85
27826;BMP280;15077;49.704;9.908;2023-10-13T05:46:33;97990.50;;;20.78
27826;BMP280;15077;49.704;9.908;2023-10-13T05:49:06;97984.78;;;20.75
27826;BMP280;15077;49.704;9.908;2023-10-13T05:51:42;97988.53;;;20.71
27826;BMP280;15077;49.704;9.908;2023-10-13T05:54:09;97991.38;;;20.68
27826;BMP280;15077;49.704;9.908;2023-10-13T05:59:30;97984.91;;;20.73
27826;BMP280;15077;49.704;9.908;2023-10-13T06:02:15;97978.00;;;20.74
27826;BMP280;15077;49.704;9.908;2023-10-13T06:05:08;97983.97;;;20.74
27826;BMP280;15077;49.704;9.908;2023-10-13T06:07:52;97978.25;;;20.71
27826;BMP280;15077;49.704;9.908;2023-10-13T06:10:37;97976.72;;;20.68
27826;BMP280;15077;49.704;9.908;2023-10-13T06:13:21;97981.88;;;20.68
27826;BMP280;15077;49.704;9.908;2023-10-13T06:16:13;97980.25;;;20.67
27826;BMP280;15077;49.704;9.908;2023-10-13T06:18:58;97981.16;;;20.66
27826;BMP280;15077;49.704;9.908;2023-10-13T06:21:43;97970.88;;;20.66
27826;BMP280;15077;49.704;9.908;2023-10-13T06:24:28;97975.09;;;20.67
27826;BMP280;15077;49.704;9.908;2023-10-13T06:27:12;97965.63;;;20.68
27826;BMP280;15077;49.704;9.908;2023-10-13T06:29:56;97973.22;;;20.69
27826;BMP280;15077;49.704;9.908;2023-10-13T06:32:23;97975.53;;;20.72
27826;BMP280;15077;49.704;9.908;2023-10-13T06:34:55;97971.91;;;20.75
27826;BMP280;15077;49.704;9.908;2023-10-13T06:37:26;97971.53;;;20.79
27826;BMP280;15077;49.704;9.908;2023-10-13T06:40:11;97968.69;;;20.82
27826;BMP280;15077;49.704;9.908;2023-10-13T06:42:59;97980.50;;;20.85
27826;BMP280;15077;49.704;9.908;2023-10-13T06:45:39;97981.06;;;20.88
27826;BMP280;15077;49.704;9.908;2023-10-13T06:48:07;97984.06;;;20.93
27826;BMP280;15077;49.704;9.908;2023-10-13T06:50:36;97985.72;;;20.94
27826;BMP280;15077;49.704;9.908;2023-10-13T06:53:07;97994.81;;;20.98
27826;BMP280;15077;49.704;9.908;2023-10-13T06:55:36;97987.66;;;21.01
27826;BMP280;15077;49.704;9.908;2023-10-13T06:58:06;97995.25;;;21.03
27826;BMP280;15077;49.704;9.908;2023-10-13T07:00:32;97985.63;;;21.05
27826;BMP280;15077;49.704;9.908;2023-10-13T07:03:06;97983.88;;;21.05
27826;BMP280;15077;49.704;9.908;2023-10-13T07:05:39;97986.31;;;21.07
27826;BMP280;15077;49.704;9.908;2023-10-13T07:08:05;97988.78;;;21.08
27826;BMP280;15077;49.704;9.908;2023-10-13T07:10:31;97990.50;;;21.08
27826;BMP280;15077;49.704;9.908;2023-10-13T07:13:01;97990.38;;;21.09
27826;BMP280;15077;49.704;9.908;2023-10-13T07:15:30;97983.22;;;21.13
27826;BMP280;15077;49.704;9.908;2023-10-13T07:17:55;97989.06;;;21.15
27826;BMP280;15077;49.704;9.908;2023-10-13T07:20:25;97987.16;;;21.17
27826;BMP280;15077;49.704;9.908;2023-10-13T07:22:53;97993.97;;;21.18
27826;BMP280;15077;49.704;9.908;2023-10-13T07:25:29;97993.69;;;21.21
27826;BMP280;15077;49.704;9.908;2023-10-13T07:28:02;97990.88;;;21.24
27826;BMP280;15077;49.704;9.908;2023-10-13T07:30:34;97988.03;;;21.27
27826;BMP280;15077;49.704;9.908;2023-10-13T07:33:18;97980.16;;;21.28
27826;BMP280;15077;49.704;9.908;2023-10-13T07:36:00;97986.69;;;21.32
27826;BMP280;15077;49.704;9.908;2023-10-13T07:38:26;97976.94;;;21.36
27826;BMP280;15077;49.704;9.908;2023-10-13T07:40:56;97983.47;;;21.40
27826;BMP280;15077;49.704;9.908;2023-10-13T07:43:32;97987.56;;;21.42
27826;BMP280;15077;49.704;9.908;2023-10-13T07:45:58;97993.25;;;21.45
27826;BMP280;15077;49.704;9.908;2023-10-13T07:48:25;97989.50;;;21.49
27826;BMP280;15077;49.704;9.908;2023-10-13T07:51:05;97990.84;;;21.53
27826;BMP280;15077;49.704;9.908;2023-10-13T07:53:45;97981.91;;;21.57
27826;BMP280;15077;49.704;9.908;2023-10-13T07:56:15;97983.03;;;21.64
27826;BMP280;15077;49.704;9.908;2023-10-13T07:58:44;97973.13;;;21.69
27826;BMP280;15077;49.704;9.908;2023-10-13T08:01:19;97970.97;;;21.74
27826;BMP280;15077;49.704;9.908;2023-10-13T08:03:45;97971.13;;;21.82
27826;BMP280;15077;49.704;9.908;2023-10-13T08:06:17;97970.44;;;21.90
27826;BMP280;15077;49.704;9.908;2023-10-13T08:08:43;97969.78;;;21.97
27826;BMP280;15077;49.704;9.908;2023-10-13T08:11:11;97968.31;;;22.04
27826;BMP280;15077;49.704;9.908;2023-10-13T08:13:38;97968.44;;;22.12
27826;BMP280;15077;49.704;9.908;2023-10-13T08:16:04;97973.75;;;22.20
27826;BMP280;15077;49.704;9.908;2023-10-13T08:18:34;97959.22;;;22.28
27826;BMP280;15077;49.704;9.908;2023-10-13T08:21:02;97955.00;;;22.37
27826;BMP280;15077;49.704;9.908;2023-10-13T08:23:29;97962.72;;;22.46
27826;BMP280;15077;49.704;9.908;2023-10-13T08:26:14;97957.56;;;22.55
27826;BMP280;15077;49.704;9.908;2023-10-13T08:28:59;97960.00;;;22.66
27826;BMP280;15077;49.704;9.908;2023-10-13T08:31:49;97962.44;;;22.77
27826;BMP280;15077;49.704;9.908;2023-10-13T08:34:33;97953.56;;;22.89
27826;BMP280;15077;49.704;9.908;2023-10-13T08:37:12;97950.97;;;22.98
27826;BMP280;15077;49.704;9.908;2023-10-13T08:39:54;97949.03;;;23.10
27826;BMP280;15077;49.704;9.908;2023-10-13T08:42:36;97945.44;;;23.20
27826;BMP280;15077;49.704;9.908;2023-10-13T08:45:09;97945.25;;;23.31
27826;BMP280;15077;49.704;9.908;2023-10-13T08:47:50;97947.09;;;23.39
27826;BMP280;15077;49.704;9.908;2023-10-13T08:50:42;97945.28;;;23.48
27826;BMP280;15077;49.704;9.908;2023-10-13T08:53:25;97937.34;;;23.59
27826;BMP280;15077;49.704;9.908;2023-10-13T08:56:07;97932.28;;;23.67
27826;BMP280;15077;49.704;9.908;2023-10-13T09:01:28;97935.03;;;23.83
27826;BMP280;15077;49.704;9.908;2023-10-13T09:06:59;97944.97;;;24.05
27826;BMP280;15077;49.704;9.908;2023-10-13T09:09:29;97936.16;;;24.15
27826;BMP280;15077;49.704;9.908;2023-10-13T09:12:15;97929.94;;;24.26
27826;BMP280;15077;49.704;9.908;2023-10-13T09:14:43;97926.47;;;24.35
27826;BMP280;15077;49.704;9.908;2023-10-13T09:17:19;97927.19;;;24.44
27826;BMP280;15077;49.704;9.908;2023-10-13T09:19:48;97921.09;;;24.53
27826;BMP280;15077;49.704;9.908;2023-10-13T09:22:27;97934.59;;;24.65
27826;BMP280;15077;49.704;9.908;2023-10-13T09:25:01;97924.81;;;24.76
27826;BMP280;15077;49.704;9.908;2023-10-13T09:27:31;97925.06;;;24.90
27826;BMP280;15077;49.704;9.908;2023-10-13T09:29:59;97921.09;;;25.04
27826;BMP280;15077;49.704;9.908;2023-10-13T09:32:33;97919.56;;;25.19
27826;BMP280;15077;49.704;9.908;2023-10-13T09:35:16;97906.66;;;25.35
27826;BMP280;15077;49.704;9.908;2023-10-13T09:37:43;97905.06;;;25.49
27826;BMP280;15077;49.704;9.908;2023-10-13T09:40:15;97901.56;;;25.66
27826;BMP280;15077;49.704;9.908;2023-10-13T09:42:55;97892.84;;;25.83
27826;BMP280;15077;49.704;9.908;2023-10-13T09:45:30;97889.44;;;25.98
27826;BMP280;15077;49.704;9.908;2023-10-13T09:48:02;97893.00;;;26.13
27826;BMP280;15077;49.704;9.908;2023-10-13T09:50:39;97888.00;;;26.28
27826;BMP280;15077;49.704;9.908;2023-10-13T09:53:10;97888.34;;;26.40
27826;BMP280;15077;49.704;9.908;2023-10-13T09:58:46;97874.97;;;26.67
27826;BMP280;15077;49.704;9.908;2023-10-13T10:01:19;97881.44;;;26.79
27826;BMP280;15077;49.704;9.908;2023-10-13T10:04:06;97873.94;;;26.92
27826;BMP280;15077;49.704;9.908;2023-10-13T10:06:38;97876.19;;;27.03
27826;BMP280;15077;49.704;9.908;2023-10-13T10:09:17;97870.63;;;27.14
27826;BMP280;15077;49.704;9.908;2023-10-13T10:17:13;97864.97;;;27.40
27826;BMP280;15077;49.704;9.908;2023-10-13T10:20:05;97880.22;;;27.51
27826;BMP280;15077;49.704;9.908;2023-10-13T10:22:41;97874.81;;;27.61
27826;BMP280;15077;49.704;9.908;2023-10-13T10:25:14;97864.63;;;27.74
27826;BMP280;15077;49.704;9.908;2023-10-13T10:28:01;97862.59;;;27.84
27826;BMP280;15077;49.704;9.908;2023-10-13T10:30:29;97852.94;;;27.92
27826;BMP280;15077;49.704;9.908;2023-10-13T10:32:58;97857.88;;;28.01
27826;BMP280;15077;49.704;9.908;2023-10-13T10:35:48;97859.63;;;28.09
27826;BMP280;15077;49.704;9.908;2023-10-13T10:38:24;97860.22;;;28.19
27826;BMP280;15077;49.704;9.908;2023-10-13T10:43:37;97857.47;;;28.35
27826;BMP280;15077;49.704;9.908;2023-10-13T10:46:11;97852.53;;;28.39
27826;BMP280;15077;49.704;9.908;2023-10-13T10:48:37;97847.31;;;28.39
27826;BMP280;15077;49.704;9.908;2023-10-13T10:51:10;97834.75;;;28.43
27826;BMP280;15077;49.704;9.908;2023-10-13T10:53:49;97834.94;;;28.41
27826;BMP280;15077;49.704;9.908;2023-10-13T10:56:24;97834.28;;;28.39
27826;BMP280;15077;49.704;9.908;2023-10-13T10:59:02;97812.19;;;28.36
27826;BMP280;15077;49.704;9.908;2023-10-13T11:01:31;97814.31;;;28.32
27826;BMP280;15077;49.704;9.908;2023-10-13T11:04:13;97808.66;;;28.29
27826;BMP280;15077;49.704;9.908;2023-10-13T11:06:50;97815.22;;;28.25
27826;BMP280;15077;49.704;9.908;2023-10-13T11:09:33;97807.75;;;28.22
27826;BMP280;15077;49.704;9.908;2023-10-13T11:12:13;97807.13;;;28.20
27826;BMP280;15077;49.704;9.908;2023-10-13T11:14:45;97805.97;;;28.22
27826;BMP280;15077;49.704;9.908;2023-10-13T11:17:20;97804.78;;;28.25
27826;BMP280;15077;49.704;9.908;2023-10-13T11:20:09;97806.69;;;28.31
27826;BMP280;15077;49.704;9.908;2023-10-13T11:22:45;97799.16;;;28.36
27826;BMP280;15077;49.704;9.908;2023-10-13T11:25:21;97789.59;;;28.42
27826;BMP280;15077;49.704;9.908;2023-10-13T11:27:58;97796.09;;;28.46
27826;BMP280;15077;49.704;9.908;2023-10-13T11:30:26;97791.78;;;28.53
27826;BMP280;15077;49.704;9.908;2023-10-13T11:33:10;97782.25;;;28.60
27826;BMP280;15077;49.704;9.908;2023-10-13T11:35:38;97787.41;;;28.68
27826;BMP280;15077;49.704;9.908;2023-10-13T11:38:30;97773.63;;;28.74
27826;BMP280;15077;49.704;9.908;2023-10-13T11:41:05;97764.66;;;28.77
27826;BMP280;15077;49.704;9.908;2023-10-13T11:43:31;97769.50;;;28.80
27826;BMP280;15077;49.704;9.908;2023-10-13T11:46:01;97762.47;;;28.80
27826;BMP280;15077;49.704;9.908;2023-10-13T11:48:33;97756.47;;;28.80
27826;BMP280;15077;49.704;9.908;2023-10-13T11:51:06;97767.69;;;28.80
27826;BMP280;15077;49.704;9.908;2023-10-13T11:53:43;97748.63;;;28.80
27826;BMP280;15077;49.704;9.908;2023-10-13T11:56:09;97746.81;;;28.80
27826;BMP280;15077;49.704;9.908;2023-10-13T11:58:36;97740.63;;;28.81
27826;BMP280;15077;49.704;9.908;2023-10-13T12:01:02;97748.09;;;28.84
27826;BMP280;15077;49.704;9.908;2023-10-13T12:03:33;97743.28;;;28.88
27826;BMP280;15077;49.704;9.908;2023-10-13T12:06:18;97744.09;;;28.88
27826;BMP280;15077;49.704;9.908;2023-10-13T12:09:07;97737.91;;;28.89
27826;BMP280;15077;49.704;9.908;2023-10-13T12:11:50;97728.25;;;28.89
27826;BMP280;15077;49.704;9.908;2023-10-13T12:14:17;97747.34;;;28.90
27826;BMP280;15077;49.704;9.908;2023-10-13T12:16:43;97726.47;;;28.90
27826;BMP280;15077;49.704;9.908;2023-10-13T12:19:15;97725.66;;;28.89
27826;BMP280;15077;49.704;9.908;2023-10-13T12:21:43;97720.25;;;28.91
27826;BMP280;15077;49.704;9.908;2023-10-13T12:24:09;97718.28;;;28.93
27826;BMP280;15077;49.704;9.908;2023-10-13T12:26:50;97705.84;;;28.95
27826;BMP280;15077;49.704;9.908;2023-10-13T12:29:23;97710.69;;;28.98
27826;BMP280;15077;49.704;9.908;2023-10-13T12:31:54;97704.88;;;28.96
27826;BMP280;15077;49.704;9.908;2023-10-13T12:34:37;97687.16;;;28.91
27826;BMP280;15077;49.704;9.908;2023-10-13T12:37:22;97698.34;;;28.86
27826;BMP280;15077;49.704;9.908;2023-10-13T12:40:22;97691.69;;;28.83
27826;BMP280;15077;49.704;9.908;2023-10-13T12:43:06;97699.50;;;28.83
27826;BMP280;15077;49.704;9.908;2023-10-13T12:45:51;97690.69;;;28.84
27826;BMP280;15077;49.704;9.908;2023-10-13T12:48:37;97694.53;;;28.88
27826;BMP280;15077;49.704;9.908;2023-10-13T12:51:21;97683.16;;;28.95
27826;BMP280;15077;49.704;9.908;2023-10-13T12:53:47;97683.69;;;29.05
27826;BMP280;15077;49.704;9.908;2023-10-13T12:56:14;97683.41;;;29.15
27826;BMP280;15077;49.704;9.908;2023-10-13T12:58:41;97682.66;;;29.21
27826;BMP280;15077;49.704;9.908;2023-10-13T13:01:07;97683.09;;;29.24
27826;BMP280;15077;49.704;9.908;2023-10-13T13:03:34;97671.50;;;29.27
27826;BMP280;15077;49.704;9.908;2023-10-13T13:06:00;97681.75;;;29.28
27826;BMP280;15077;49.704;9.908;2023-10-13T13:08:33;97683.53;;;29.28
27826;BMP280;15077;49.704;9.908;2023-10-13T13:11:01;97685.16;;;29.29
27826;BMP280;15077;49.704;9.908;2023-10-13T13:13:29;97673.09;;;29.28
27826;BMP280;15077;49.704;9.908;2023-10-13T13:15:57;97668.88;;;29.27
27826;BMP280;15077;49.704;9.908;2023-10-13T13:18:22;97656.16;;;29.24
27826;BMP280;15077;49.704;9.908;2023-10-13T13:20:48;97661.75;;;29.21
27826;BMP280;15077;49.704;9.908;2023-10-13T13:23:21;97660.13;;;29.20
27826;BMP280;15077;49.704;9.908;2023-10-13T13:25:47;97648.91;;;29.19
27826;BMP280;15077;49.704;9.908;2023-10-13T13:28:14;97645.47;;;29.19
27826;BMP280;15077;49.704;9.908;2023-10-13T13:30:41;97633.06;;;29.21
27826;BMP280;15077;49.704;9.908;2023-10-13T13:33:06;97639.34;;;29.26
27826;BMP280;15077;49.704;9.908;2023-10-13T13:35:39;97637.59;;;29.33
27826;BMP280;15077;49.704;9.908;2023-10-13T13:38:05;97627.84;;;29.41
27826;BMP280;15077;49.704;9.908;2023-10-13T13:40:53;97625.91;;;29.50
27826;BMP280;15077;49.704;9.908;2023-10-13T13:43:22;97628.78;;;29.61
27826;BMP280;15077;49.704;9.908;2023-10-13T13:46:10;97616.38;;;29.70
27826;BMP280;15077;49.704;9.908;2023-10-13T13:48:36;97610.81;;;29.79
27826;BMP280;15077;49.704;9.908;2023-10-13T13:51:04;97612.28;;;29.88
27826;BMP280;15077;49.704;9.908;2023-10-13T13:53:31;97604.91;;;29.98
27826;BMP280;15077;49.704;9.908;2023-10-13T13:56:03;97605.38;;;30.08
27826;BMP280;15077;49.704;9.908;2023-10-13T13:58:30;97601.59;;;30.17
27826;BMP280;15077;49.704;9.908;2023-10-13T14:01:02;97603.44;;;30.23
27826;BMP280;15077;49.704;9.908;2023-10-13T14:03:45;97596.63;;;30.28
27826;BMP280;15077;49.704;9.908;2023-10-13T14:06:12;97581.13;;;30.33
27826;BMP280;15077;49.704;9.908;2023-10-13T14:08:47;97589.03;;;30.39
27826;BMP280;15077;49.704;9.908;2023-10-13T14:11:27;97581.41;;;30.44
27826;BMP280;15077;49.704;9.908;2023-10-13T14:14:12;97584.03;;;30.51
27826;BMP280;15077;49.704;9.908;2023-10-13T14:16:39;97585.06;;;30.56
27826;BMP280;15077;49.704;9.908;2023-10-13T14:19:11;97573.81;;;30.62
27826;BMP280;15077;49.704;9.908;2023-10-13T14:21:37;97569.81;;;30.66
27826;BMP280;15077;49.704;9.908;2023-10-13T14:24:03;97563.16;;;30.70
27826;BMP280;15077;49.704;9.908;2023-10-13T14:26:38;97570.59;;;30.73
27826;BMP280;15077;49.704;9.908;2023-10-13T14:29:05;97571.81;;;30.77
27826;BMP280;15077;49.704;9.908;2023-10-13T14:31:34;97567.00;;;30.81
27826;BMP280;15077;49.704;9.908;2023-10-13T14:34:03;97565.59;;;30.85
27826;BMP280;15077;49.704;9.908;2023-10-13T14:36:29;97555.38;;;30.89
27826;BMP280;15077;49.704;9.908;2023-10-13T14:38:58;97557.81;;;30.91
27826;BMP280;15077;49.704;9.908;2023-10-13T14:41:23;97556.56;;;30.93
27826;BMP280;15077;49.704;9.908;2023-10-13T14:43:49;97545.91;;;30.95
27826;BMP280;15077;49.704;9.908;2023-10-13T14:46:15;97558.59;;;30.98
27826;BMP280;15077;49.704;9.908;2023-10-13T14:48:44;97548.53;;;30.95
27826;BMP280;15077;49.704;9.908;2023-10-13T14:51:11;97554.16;;;30.92
27826;BMP280;15077;49.704;9.908;2023-10-13T14:53:41;97541.47;;;30.89
27826;BMP280;15077;49.704;9.908;2023-10-13T14:56:16;97549.69;;;30.86
27826;BMP280;15077;49.704;9.908;2023-10-13T14:58:43;97533.59;;;30.83
27826;BMP280;15077;49.704;9.908;2023-10-13T15:01:15;97537.63;;;30.72
27826;BMP280;15077;49.704;9.908;2023-10-13T15:03:48;97529.53;;;30.61
27826;BMP280;15077;49.704;9.908;2023-10-13T15:06:15;97532.34;;;30.53
27826;BMP280;15077;49.704;9.908;2023-10-13T15:08:47;97530.53;;;30.47
27826;BMP280;15077;49.704;9.908;2023-10-13T15:11:13;97533.34;;;30.45